Time;durP1;ratioP1;P1;durP2;ratioP2;P2;SDS_P1;SDS_P2;PMS_P1;PMS_P2;Temp;Humidity;BMP_temperature;BMP_pressure;BME280_temperature;BME280_humidity;BME280_pressure;Samples;Min_cycle;Max_cycle;Signal;HPM_P1;HPM_P2
2023/03/25 00:01:24;;;;;;;2.42;0.73;;;;;;;;;;5097339;28;20196;-70
2023/03/25 00:03:52;;;;;;;2.47;0.65;;;;;;;;;;5085039;28;20401;-70
2023/03/25 00:06:18;;;;;;;2.35;0.60;;;;;;;;;;5084596;28;20203;-69
2023/03/25 00:08:44;;;;;;;0.80;0.70;;;;;;;;;;5084697;28;20196;-69
2023/03/25 00:11:11;;;;;;;1.58;0.80;;;;;;;;;;5084561;28;20196;-69
2023/03/25 00:13:39;;;;;;;0.80;0.43;;;;;;;;;;5084532;28;20200;-69
2023/03/25 00:16:09;;;;;;;2.15;0.70;;;;;;;;;;5084818;28;20454;-69
2023/03/25 00:18:36;;;;;;;0.88;0.43;;;;;;;;;;5084540;28;20292;-69
2023/03/25 00:21:03;;;;;;;0.77;0.50;;;;;;;;;;5084255;28;20201;-69
2023/03/25 00:23:31;;;;;;;0.45;0.45;;;;;;;;;;5084485;28;20189;-69
2023/03/25 00:25:59;;;;;;;0.40;0.40;;;;;;;;;;5084405;28;20200;-69
2023/03/25 00:28:25;;;;;;;1.08;0.40;;;;;;;;;;5084302;28;20235;-69
2023/03/25 00:30:52;;;;;;;1.20;0.50;;;;;;;;;;5084445;28;20242;-69
2023/03/25 00:33:21;;;;;;;1.73;0.35;;;;;;;;;;5084237;28;20200;-69
2023/03/25 00:35:51;;;;;;;0.35;0.30;;;;;;;;;;5084164;28;20265;-69
2023/03/25 00:38:17;;;;;;;0.40;0.40;;;;;;;;;;5084157;28;20216;-69
2023/03/25 00:40:45;;;;;;;0.85;0.70;;;;;;;;;;5083723;28;20399;-70
2023/03/25 00:43:13;;;;;;;0.40;0.40;;;;;;;;;;5084232;28;20197;-70
2023/03/25 00:45:39;;;;;;;0.90;0.50;;;;;;;;;;5084279;28;20427;-70
2023/03/25 00:48:06;;;;;;;2.35;0.40;;;;;;;;;;5084014;28;20193;-69
2023/03/25 00:50:33;;;;;;;1.85;0.40;;;;;;;;;;5083924;28;20197;-69
2023/03/25 00:53:00;;;;;;;0.52;0.52;;;;;;;;;;5083832;28;20250;-70
2023/03/25 00:55:26;;;;;;;1.33;0.40;;;;;;;;;;5083978;28;20364;-70
2023/03/25 00:57:52;;;;;;;1.08;0.50;;;;;;;;;;5083918;28;20220;-70
2023/03/25 01:00:19;;;;;;;1.48;0.50;;;;;;;;;;5083152;28;20555;-70
2023/03/25 01:02:45;;;;;;;0.50;0.40;;;;;;;;;;5083505;28;20196;-70
2023/03/25 01:05:12;;;;;;;0.40;0.40;;;;;;;;;;5083574;28;20208;-70
2023/03/25 01:07:41;;;;;;;1.42;0.60;;;;;;;;;;5083534;28;20216;-69
2023/03/25 01:10:07;;;;;;;1.30;1.20;;;;;;;;;;5083484;28;20397;-69
2023/03/25 01:12:34;;;;;;;1.15;1.10;;;;;;;;;;5083601;28;20200;-69
2023/03/25 01:15:00;;;;;;;2.80;1.67;;;;;;;;;;5083631;28;20234;-69
2023/03/25 01:17:26;;;;;;;1.42;1.33;;;;;;;;;;5083259;28;20220;-69
2023/03/25 01:19:52;;;;;;;1.85;1.70;;;;;;;;;;5083377;28;20204;-69
2023/03/25 01:22:19;;;;;;;1.00;0.90;;;;;;;;;;5083087;28;20537;-69
2023/03/25 01:24:46;;;;;;;0.60;0.60;;;;;;;;;;5083497;28;20196;-69
2023/03/25 01:27:13;;;;;;;1.13;0.40;;;;;;;;;;5083268;28;20262;-69
2023/03/25 01:29:39;;;;;;;0.50;0.50;;;;;;;;;;5083313;28;20196;-69
2023/03/25 01:32:06;;;;;;;0.47;0.47;;;;;;;;;;5083008;28;20192;-69
2023/03/25 01:34:32;;;;;;;0.70;0.50;;;;;;;;;;5082608;28;20200;-69
2023/03/25 01:36:59;;;;;;;1.02;0.52;;;;;;;;;;5083243;28;20578;-69
2023/03/25 01:39:26;;;;;;;1.23;0.63;;;;;;;;;;5082922;28;20200;-69
2023/03/25 01:41:54;;;;;;;0.73;0.73;;;;;;;;;;5083079;28;20499;-70
2023/03/25 01:44:39;;;;;;;0.85;0.60;;;;;;;;;;5082964;28;20196;-70
2023/03/25 01:47:07;;;;;;;1.05;0.43;;;;;;;;;;5082711;28;20204;-70
2023/03/25 01:49:37;;;;;;;0.68;0.68;;;;;;;;;;5083223;28;20203;-70
2023/03/25 01:52:05;;;;;;;1.55;0.82;;;;;;;;;;5082789;28;20499;-70
2023/03/25 01:54:31;;;;;;;1.25;0.70;;;;;;;;;;5082709;28;20196;-69
2023/03/25 01:56:59;;;;;;;0.85;0.73;;;;;;;;;;5082756;28;20500;-69
2023/03/25 01:59:27;;;;;;;1.58;0.70;;;;;;;;;;5082463;28;20229;-69
2023/03/25 02:01:53;;;;;;;3.70;0.80;;;;;;;;;;5082325;28;20234;-69
2023/03/25 02:04:26;;;;;;;2.00;0.60;;;;;;;;;;5082766;28;20196;-69
2023/03/25 02:06:53;;;;;;;1.55;0.80;;;;;;;;;;5082528;28;20196;-69
2023/03/25 02:09:20;;;;;;;1.92;1.00;;;;;;;;;;5082397;28;20200;-69
2023/03/25 02:11:47;;;;;;;0.50;0.50;;;;;;;;;;5082282;28;20200;-69
2023/03/25 02:14:16;;;;;;;1.05;0.80;;;;;;;;;;5082287;28;20205;-69
2023/03/25 02:16:46;;;;;;;1.83;0.65;;;;;;;;;;5082581;28;20718;-69
2023/03/25 02:19:22;;;;;;;3.13;0.85;;;;;;;;;;5082325;28;20220;-69
2023/03/25 02:22:06;;;;;;;2.17;0.80;;;;;;;;;;5082327;28;20205;-69
2023/03/25 02:25:03;;;;;;;1.23;1.00;;;;;;;;;;5082822;28;20196;-69
2023/03/25 02:27:44;;;;;;;2.33;0.82;;;;;;;;;;5082274;28;20589;-70
2023/03/25 02:30:21;;;;;;;2.22;0.50;;;;;;;;;;5102101;28;20199;-69
2023/03/25 02:32:58;;;;;;;0.57;0.57;;;;;;;;;;5102114;28;20196;-69
2023/03/25 02:35:30;;;;;;;0.63;0.60;;;;;;;;;;5102620;28;20199;-69
2023/03/25 02:38:05;;;;;;;3.17;1.35;;;;;;;;;;5102649;28;20215;-69
2023/03/25 02:40:36;;;;;;;4.47;0.82;;;;;;;;;;5102862;28;20408;-69
2023/03/25 02:43:05;;;;;;;0.50;0.50;;;;;;;;;;5101953;28;20203;-69
2023/03/25 02:45:33;;;;;;;0.75;0.40;;;;;;;;;;5102345;28;20211;-69
2023/03/25 02:48:02;;;;;;;1.58;0.70;;;;;;;;;;5102271;28;20195;-69
2023/03/25 02:50:30;;;;;;;0.73;0.50;;;;;;;;;;5102379;28;20199;-69
2023/03/25 02:52:59;;;;;;;2.20;0.60;;;;;;;;;;5101983;28;20213;-69
2023/03/25 02:55:29;;;;;;;1.65;0.50;;;;;;;;;;5102155;28;20519;-69
2023/03/25 02:57:56;;;;;;;2.25;0.60;;;;;;;;;;5102424;28;20262;-69
2023/03/25 03:00:24;;;;;;;2.22;0.52;;;;;;;;;;5102456;28;20196;-69
2023/03/25 03:02:58;;;;;;;1.70;0.60;;;;;;;;;;5102225;28;20195;-67
2023/03/25 03:05:25;;;;;;;0.52;0.50;;;;;;;;;;5102021;28;20196;-68
2023/03/25 03:07:53;;;;;;;0.68;0.40;;;;;;;;;;5102074;28;20199;-68
2023/03/25 03:10:21;;;;;;;0.55;0.55;;;;;;;;;;5102076;28;20203;-68
2023/03/25 03:12:55;;;;;;;0.40;0.40;;;;;;;;;;5101872;28;20540;-68
2023/03/25 03:15:29;;;;;;;0.60;0.60;;;;;;;;;;5102183;28;20495;-68
2023/03/25 03:18:02;;;;;;;1.27;0.45;;;;;;;;;;5101863;28;20219;-68
2023/03/25 03:20:34;;;;;;;1.58;0.40;;;;;;;;;;5101916;28;20199;-68
2023/03/25 03:23:04;;;;;;;2.20;0.70;;;;;;;;;;5103071;28;20196;-68
2023/03/25 03:25:34;;;;;;;2.15;0.52;;;;;;;;;;5105975;28;20196;-68
2023/03/25 03:28:05;;;;;;;0.40;0.40;;;;;;;;;;5105713;28;20231;-68
2023/03/25 03:30:32;;;;;;;1.08;0.57;;;;;;;;;;5105731;28;20529;-68
2023/03/25 03:33:02;;;;;;;0.90;0.43;;;;;;;;;;5105518;28;20202;-68
2023/03/25 03:35:31;;;;;;;2.67;0.75;;;;;;;;;;5105894;28;20385;-68
2023/03/25 03:37:59;;;;;;;0.80;0.50;;;;;;;;;;5105696;28;20223;-68
2023/03/25 03:40:27;;;;;;;0.45;0.45;;;;;;;;;;5105658;28;20200;-68
2023/03/25 03:42:54;;;;;;;0.30;0.30;;;;;;;;;;5105354;28;20427;-68
2023/03/25 03:45:24;;;;;;;0.47;0.47;;;;;;;;;;5105502;28;20516;-68
2023/03/25 03:47:52;;;;;;;1.75;0.40;;;;;;;;;;5105797;28;20196;-68
2023/03/25 03:50:20;;;;;;;0.50;0.40;;;;;;;;;;5105738;28;20191;-68
2023/03/25 03:52:50;;;;;;;0.40;0.40;;;;;;;;;;5105139;28;20196;-68
2023/03/25 03:55:20;;;;;;;0.90;0.30;;;;;;;;;;5105497;28;20393;-68
2023/03/25 03:57:49;;;;;;;0.40;0.40;;;;;;;;;;5105206;28;20201;-68
2023/03/25 04:00:17;;;;;;;0.40;0.40;;;;;;;;;;5105341;28;20598;-68
2023/03/25 04:02:48;;;;;;;0.50;0.40;;;;;;;;;;5105393;28;20196;-68
2023/03/25 04:05:16;;;;;;;0.65;0.40;;;;;;;;;;5105122;28;20195;-68
2023/03/25 04:07:44;;;;;;;0.98;0.40;;;;;;;;;;5105036;28;20363;-68
2023/03/25 04:10:13;;;;;;;0.20;0.20;;;;;;;;;;5104947;28;20495;-68
2023/03/25 04:12:41;;;;;;;0.30;0.30;;;;;;;;;;5105007;28;20204;-68
2023/03/25 04:15:08;;;;;;;0.38;0.38;;;;;;;;;;5104737;28;20245;-68
2023/03/25 04:17:34;;;;;;;1.55;0.30;;;;;;;;;;5104804;28;20203;-68
2023/03/25 04:20:05;;;;;;;1.05;0.50;;;;;;;;;;5104776;28;20246;-68
2023/03/25 04:22:32;;;;;;;1.08;0.30;;;;;;;;;;5104709;28;20223;-68
2023/03/25 04:24:59;;;;;;;2.13;0.47;;;;;;;;;;5104588;28;20195;-68
2023/03/25 04:27:28;;;;;;;0.40;0.40;;;;;;;;;;5104794;28;20219;-70
2023/03/25 04:29:56;;;;;;;0.30;0.30;;;;;;;;;;5104759;28;20195;-70
2023/03/25 04:32:23;;;;;;;0.20;0.20;;;;;;;;;;5104548;28;20249;-68
2023/03/25 04:34:49;;;;;;;0.40;0.25;;;;;;;;;;5103501;28;20196;-68
2023/03/25 04:37:17;;;;;;;1.27;0.50;;;;;;;;;;5104749;28;20208;-68
2023/03/25 04:39:43;;;;;;;0.68;0.30;;;;;;;;;;5104587;28;20265;-70
2023/03/25 04:42:12;;;;;;;1.55;0.40;;;;;;;;;;5104411;28;20200;-68
2023/03/25 04:44:38;;;;;;;0.65;0.40;;;;;;;;;;5104473;28;20433;-70
2023/03/25 04:47:05;;;;;;;0.30;0.30;;;;;;;;;;5104487;28;20195;-68
2023/03/25 04:49:31;;;;;;;0.65;0.30;;;;;;;;;;5104427;28;20196;-68
2023/03/25 04:52:01;;;;;;;0.28;0.28;;;;;;;;;;5104040;28;20395;-68
2023/03/25 04:54:28;;;;;;;2.40;0.30;;;;;;;;;;5104311;28;20263;-68
2023/03/25 04:56:55;;;;;;;0.30;0.30;;;;;;;;;;5104206;28;20195;-68
2023/03/25 04:59:23;;;;;;;0.90;0.25;;;;;;;;;;5103993;28;20219;-70
2023/03/25 05:01:49;;;;;;;0.55;0.30;;;;;;;;;;5103948;28;20399;-70
2023/03/25 05:04:17;;;;;;;0.43;0.43;;;;;;;;;;5104148;28;20430;-68
2023/03/25 05:06:44;;;;;;;0.22;0.22;;;;;;;;;;5103811;28;20249;-68
2023/03/25 05:09:12;;;;;;;0.57;0.38;;;;;;;;;;5104114;28;20211;-68
2023/03/25 05:11:40;;;;;;;0.68;0.35;;;;;;;;;;5103862;28;20200;-68
2023/03/25 05:14:07;;;;;;;1.35;0.47;;;;;;;;;;5103768;28;20195;-70
2023/03/25 05:16:33;;;;;;;0.82;0.60;;;;;;;;;;5103469;28;20428;-70
2023/03/25 05:19:02;;;;;;;0.60;0.60;;;;;;;;;;5104069;28;20576;-70
2023/03/25 05:21:28;;;;;;;1.40;0.60;;;;;;;;;;5103624;28;20495;-70
2023/03/25 05:23:56;;;;;;;0.65;0.60;;;;;;;;;;5103855;28;20256;-70
2023/03/25 05:26:23;;;;;;;0.38;0.38;;;;;;;;;;5103810;28;20530;-70
2023/03/25 05:28:50;;;;;;;0.60;0.55;;;;;;;;;;5103519;28;20211;-70
2023/03/25 05:31:17;;;;;;;0.88;0.68;;;;;;;;;;5103585;28;20195;-70
2023/03/25 05:33:43;;;;;;;0.43;0.43;;;;;;;;;;5103509;28;20207;-70
2023/03/25 05:36:10;;;;;;;0.80;0.65;;;;;;;;;;5103577;28;20200;-70
2023/03/25 05:38:37;;;;;;;3.50;0.82;;;;;;;;;;5103345;28;20223;-69
2023/03/25 05:41:03;;;;;;;0.95;0.50;;;;;;;;;;5103404;28;20379;-69
2023/03/25 05:43:34;;;;;;;0.95;0.60;;;;;;;;;;5103139;28;20226;-70
2023/03/25 05:46:03;;;;;;;3.60;0.60;;;;;;;;;;5102765;28;20242;-69
2023/03/25 05:48:31;;;;;;;0.70;0.70;;;;;;;;;;5103038;28;20257;-69
2023/03/25 05:50:57;;;;;;;0.60;0.60;;;;;;;;;;5103101;28;20233;-69
2023/03/25 05:53:23;;;;;;;1.17;0.68;;;;;;;;;;5103129;28;20253;-70
2023/03/25 05:55:50;;;;;;;3.40;0.80;;;;;;;;;;5103229;28;20241;-69
2023/03/25 05:58:18;;;;;;;2.25;0.75;;;;;;;;;;5103143;28;20195;-69
2023/03/25 06:00:45;;;;;;;7.25;0.82;;;;;;;;;;5102857;28;20468;-69
2023/03/25 06:03:14;;;;;;;1.50;0.60;;;;;;;;;;5103092;28;20195;-69
2023/03/25 06:05:40;;;;;;;0.63;0.60;;;;;;;;;;5103044;28;20375;-69
2023/03/25 06:08:07;;;;;;;5.57;1.17;;;;;;;;;;5102890;28;20196;-69
2023/03/25 06:10:33;;;;;;;2.05;0.73;;;;;;;;;;5102719;28;20234;-69
2023/03/25 06:12:59;;;;;;;3.08;0.95;;;;;;;;;;5102511;28;20526;-69
2023/03/25 06:15:37;;;;;;;3.28;1.15;;;;;;;;;;5102635;28;20791;-69
2023/03/25 06:18:04;;;;;;;2.42;1.20;;;;;;;;;;5102849;28;20576;-69
2023/03/25 06:20:32;;;;;;;3.15;1.10;;;;;;;;;;5102753;28;20258;-69
2023/03/25 06:22:58;;;;;;;1.38;0.90;;;;;;;;;;5102292;28;20271;-70
2023/03/25 06:25:25;;;;;;;2.25;1.08;;;;;;;;;;5102500;28;20241;-69
2023/03/25 06:27:51;;;;;;;1.50;0.90;;;;;;;;;;5102429;28;20558;-69
2023/03/25 06:30:19;;;;;;;2.35;0.80;;;;;;;;;;5102671;28;20553;-69
2023/03/25 06:32:49;;;;;;;1.65;0.80;;;;;;;;;;5102721;28;20203;-69
2023/03/25 06:35:18;;;;;;;4.32;1.08;;;;;;;;;;5102609;28;20196;-69
2023/03/25 06:37:46;;;;;;;1.75;0.70;;;;;;;;;;5102562;28;20554;-69
2023/03/25 06:40:13;;;;;;;2.78;1.08;;;;;;;;;;5102331;28;20439;-69
2023/03/25 06:42:40;;;;;;;3.22;0.90;;;;;;;;;;5102411;28;20203;-69
2023/03/25 06:45:07;;;;;;;2.00;0.85;;;;;;;;;;5102360;28;20339;-69
2023/03/25 06:47:33;;;;;;;1.67;1.00;;;;;;;;;;5102457;28;20237;-69
2023/03/25 06:49:59;;;;;;;2.00;0.90;;;;;;;;;;5102488;28;20304;-69
2023/03/25 06:52:26;;;;;;;3.83;0.80;;;;;;;;;;5102160;28;20203;-69
2023/03/25 06:54:53;;;;;;;2.13;0.90;;;;;;;;;;5102186;28;20195;-69
2023/03/25 06:57:20;;;;;;;4.60;0.77;;;;;;;;;;5102111;28;20204;-69
2023/03/25 06:59:48;;;;;;;3.97;1.00;;;;;;;;;;5106244;28;20256;-69
2023/03/25 07:02:14;;;;;;;3.05;0.60;;;;;;;;;;5106290;28;20602;-69
2023/03/25 07:04:41;;;;;;;3.30;0.82;;;;;;;;;;5106363;28;20195;-69
2023/03/25 07:07:07;;;;;;;2.50;0.90;;;;;;;;;;5106345;28;20199;-69
2023/03/25 07:09:33;;;;;;;2.53;0.60;;;;;;;;;;5106037;28;20272;-69
2023/03/25 07:12:01;;;;;;;3.60;0.70;;;;;;;;;;5106393;28;20196;-69
2023/03/25 07:14:27;;;;;;;1.70;0.80;;;;;;;;;;5106216;28;20573;-69
2023/03/25 07:16:54;;;;;;;1.02;1.02;;;;;;;;;;5106256;28;20503;-69
2023/03/25 07:19:20;;;;;;;12.05;6.72;;;;;;;;;;5105994;28;20253;-69
2023/03/25 07:21:46;;;;;;;6.18;2.13;;;;;;;;;;5105861;28;20379;-69
2023/03/25 07:24:13;;;;;;;9.55;4.30;;;;;;;;;;5106362;28;20231;-69
2023/03/25 07:26:39;;;;;;;3.95;2.15;;;;;;;;;;5106371;28;20196;-69
2023/03/25 07:29:07;;;;;;;1.02;0.75;;;;;;;;;;5106044;28;20242;-69
2023/03/25 07:31:33;;;;;;;0.93;0.70;;;;;;;;;;5106059;28;20400;-69
2023/03/25 07:34:01;;;;;;;2.50;0.77;;;;;;;;;;5106386;28;20218;-60
2023/03/25 07:36:27;;;;;;;3.50;0.98;;;;;;;;;;5105836;28;20242;-60
2023/03/25 07:38:54;;;;;;;2.87;0.83;;;;;;;;;;5106032;28;20499;-59
2023/03/25 07:41:20;;;;;;;1.35;0.75;;;;;;;;;;5105865;28;20266;-60
2023/03/25 07:43:46;;;;;;;1.92;0.52;;;;;;;;;;5104272;28;20492;-61
2023/03/25 07:46:14;;;;;;;3.40;0.65;;;;;;;;;;5104444;28;20241;-60
2023/03/25 07:48:41;;;;;;;2.65;1.00;;;;;;;;;;5104401;28;20267;-59
2023/03/25 07:51:08;;;;;;;2.15;0.57;;;;;;;;;;5104184;28;20199;-59
2023/03/25 07:53:37;;;;;;;0.40;0.40;;;;;;;;;;5104407;28;20211;-59
2023/03/25 07:56:04;;;;;;;0.98;0.40;;;;;;;;;;5104282;28;20271;-59
2023/03/25 07:58:30;;;;;;;4.28;0.30;;;;;;;;;;5104094;28;20195;-59
2023/03/25 08:00:57;;;;;;;0.40;0.40;;;;;;;;;;5104310;28;20261;-59
2023/03/25 08:03:26;;;;;;;1.33;0.60;;;;;;;;;;5105530;28;20200;-59
2023/03/25 08:05:52;;;;;;;0.95;0.55;;;;;;;;;;5105419;28;20271;-59
2023/03/25 08:08:19;;;;;;;1.25;0.52;;;;;;;;;;5105504;28;20503;-59
2023/03/25 08:10:46;;;;;;;1.13;0.50;;;;;;;;;;5104904;28;20200;-59
2023/03/25 08:13:13;;;;;;;0.57;0.52;;;;;;;;;;5105333;28;20203;-60
2023/03/25 08:15:40;;;;;;;0.80;0.40;;;;;;;;;;5105127;28;20205;-59
2023/03/25 08:18:06;;;;;;;2.17;0.50;;;;;;;;;;5105066;28;20503;-60
2023/03/25 08:20:34;;;;;;;2.08;0.43;;;;;;;;;;5105260;28;20549;-59
2023/03/25 08:23:01;;;;;;;1.52;0.50;;;;;;;;;;5105002;28;20200;-60
2023/03/25 08:25:28;;;;;;;0.40;0.40;;;;;;;;;;5104962;28;20558;-59
2023/03/25 08:27:54;;;;;;;1.15;0.50;;;;;;;;;;5104928;28;20216;-60
2023/03/25 08:30:21;;;;;;;1.48;0.60;;;;;;;;;;5104964;28;20192;-59
2023/03/25 08:32:52;;;;;;;0.93;0.65;;;;;;;;;;5104598;28;20499;-58
2023/03/25 08:35:19;;;;;;;0.40;0.40;;;;;;;;;;5105097;28;20267;-59
2023/03/25 08:37:47;;;;;;;0.75;0.50;;;;;;;;;;5104830;28;20223;-60
2023/03/25 08:40:13;;;;;;;0.82;0.30;;;;;;;;;;5104784;28;20215;-60
2023/03/25 08:42:41;;;;;;;0.90;0.50;;;;;;;;;;5104375;28;20283;-59
2023/03/25 08:45:08;;;;;;;1.27;0.50;;;;;;;;;;5104628;28;20342;-60
2023/03/25 08:47:34;;;;;;;0.90;0.40;;;;;;;;;;5104464;28;20425;-60
2023/03/25 08:50:00;;;;;;;2.65;0.30;;;;;;;;;;5104546;28;20220;-59
2023/03/25 08:52:26;;;;;;;0.85;0.40;;;;;;;;;;5104407;28;20203;-60
2023/03/25 08:54:54;;;;;;;0.38;0.38;;;;;;;;;;5104325;28;20225;-59
2023/03/25 08:57:20;;;;;;;1.48;0.30;;;;;;;;;;5103931;28;20210;-60
2023/03/25 08:59:46;;;;;;;0.70;0.70;;;;;;;;;;5103667;28;20219;-59
2023/03/25 09:02:13;;;;;;;0.68;0.28;;;;;;;;;;5103621;28;20291;-60
2023/03/25 09:04:39;;;;;;;0.88;0.40;;;;;;;;;;5103993;28;20203;-59
2023/03/25 09:07:09;;;;;;;0.60;0.52;;;;;;;;;;5103934;28;20662;-60
2023/03/25 09:09:35;;;;;;;0.52;0.50;;;;;;;;;;5103667;28;20203;-60
2023/03/25 09:12:03;;;;;;;0.95;0.43;;;;;;;;;;5104021;28;20196;-60
2023/03/25 09:14:29;;;;;;;0.63;0.60;;;;;;;;;;5103569;28;20195;-60
2023/03/25 09:16:55;;;;;;;1.30;0.40;;;;;;;;;;5103622;28;20196;-60
2023/03/25 09:19:22;;;;;;;0.75;0.35;;;;;;;;;;5103947;28;20234;-60
2023/03/25 09:21:48;;;;;;;1.58;0.40;;;;;;;;;;5102795;28;20642;-60
2023/03/25 09:24:14;;;;;;;0.90;0.40;;;;;;;;;;5103700;28;20429;-60
2023/03/25 09:26:40;;;;;;;0.73;0.70;;;;;;;;;;5103728;28;20425;-60
2023/03/25 09:29:08;;;;;;;1.27;0.77;;;;;;;;;;5103446;28;20539;-59
2023/03/25 09:31:34;;;;;;;0.63;0.63;;;;;;;;;;5103828;28;20495;-60
2023/03/25 09:34:01;;;;;;;1.42;0.70;;;;;;;;;;5103455;28;20195;-59
2023/03/25 09:36:27;;;;;;;1.15;0.50;;;;;;;;;;5103603;28;20195;-59
2023/03/25 09:38:53;;;;;;;0.68;0.52;;;;;;;;;;5103442;28;20218;-59
2023/03/25 09:41:25;;;;;;;0.98;0.47;;;;;;;;;;5103227;28;20224;-60
2023/03/25 09:43:58;;;;;;;1.73;0.57;;;;;;;;;;5103556;28;20196;-60
2023/03/25 09:46:26;;;;;;;0.40;0.40;;;;;;;;;;5103559;28;20196;-60
2023/03/25 09:48:54;;;;;;;1.27;0.50;;;;;;;;;;5103377;28;20195;-60
2023/03/25 09:51:21;;;;;;;1.40;0.47;;;;;;;;;;5103260;28;20210;-60
2023/03/25 09:53:49;;;;;;;1.02;0.50;;;;;;;;;;5103386;28;20196;-60
2023/03/25 09:56:17;;;;;;;0.55;0.40;;;;;;;;;;5103203;28;20549;-60
2023/03/25 09:58:45;;;;;;;3.15;0.68;;;;;;;;;;5103173;28;20196;-60
2023/03/25 10:01:23;;;;;;;1.00;0.70;;;;;;;;;;5102770;28;20263;-60
2023/03/25 10:04:05;;;;;;;0.73;0.57;;;;;;;;;;5103118;28;20392;-60
2023/03/25 10:06:32;;;;;;;0.50;0.50;;;;;;;;;;5102883;28;20241;-60
2023/03/25 10:09:12;;;;;;;1.30;1.20;;;;;;;;;;5103126;28;20234;-60
2023/03/25 10:11:43;;;;;;;0.40;0.32;;;;;;;;;;5102973;28;20245;-60
2023/03/25 10:14:11;;;;;;;0.50;0.50;;;;;;;;;;5102899;28;20425;-60
2023/03/25 10:16:43;;;;;;;0.63;0.50;;;;;;;;;;5102848;28;20503;-60
2023/03/25 10:19:17;;;;;;;0.68;0.68;;;;;;;;;;5102714;28;20429;-60
2023/03/25 10:21:48;;;;;;;1.13;0.47;;;;;;;;;;5102673;28;20219;-60
2023/03/25 10:24:17;;;;;;;0.40;0.40;;;;;;;;;;5102829;28;20203;-60
2023/03/25 10:26:45;;;;;;;2.45;0.52;;;;;;;;;;5102858;28;20221;-61
2023/03/25 10:29:13;;;;;;;1.25;0.60;;;;;;;;;;5102587;28;20216;-60
2023/03/25 10:31:42;;;;;;;0.55;0.43;;;;;;;;;;5102279;28;20229;-60
2023/03/25 10:34:14;;;;;;;1.70;0.60;;;;;;;;;;5102159;28;20195;-58
2023/03/25 10:36:45;;;;;;;2.75;0.35;;;;;;;;;;5102838;28;20237;-60
2023/03/25 10:39:15;;;;;;;0.30;0.30;;;;;;;;;;5102475;28;20195;-60
2023/03/25 10:41:42;;;;;;;0.88;0.25;;;;;;;;;;5102203;28;20251;-60
2023/03/25 10:44:09;;;;;;;0.30;0.30;;;;;;;;;;5102376;28;20195;-60
2023/03/25 10:46:38;;;;;;;1.45;0.50;;;;;;;;;;5102739;28;20195;-60
2023/03/25 10:49:04;;;;;;;0.57;0.40;;;;;;;;;;5102448;28;20196;-60
2023/03/25 10:51:33;;;;;;;2.05;0.47;;;;;;;;;;5102326;28;20514;-60
2023/03/25 10:54:01;;;;;;;0.50;0.30;;;;;;;;;;5102439;28;20530;-60
2023/03/25 10:56:31;;;;;;;0.45;0.25;;;;;;;;;;5102388;28;20199;-60
2023/03/25 10:58:59;;;;;;;0.57;0.40;;;;;;;;;;5102613;28;20499;-60
2023/03/25 11:01:31;;;;;;;0.40;0.30;;;;;;;;;;5102367;28;20531;-60
2023/03/25 11:03:59;;;;;;;3.53;0.40;;;;;;;;;;5102484;28;20223;-60
2023/03/25 11:06:28;;;;;;;1.13;0.38;;;;;;;;;;5102248;28;20196;-60
2023/03/25 11:08:58;;;;;;;2.20;0.40;;;;;;;;;;5102110;28;20241;-60
2023/03/25 11:11:32;;;;;;;0.75;0.45;;;;;;;;;;5102401;28;20180;-60
2023/03/25 11:13:59;;;;;;;11.52;0.60;;;;;;;;;;5102484;28;20234;-59
2023/03/25 11:16:27;;;;;;;1.98;0.60;;;;;;;;;;5102356;28;20508;-59
2023/03/25 11:18:53;;;;;;;0.88;0.50;;;;;;;;;;5102226;28;20496;-60
2023/03/25 11:21:20;;;;;;;1.25;0.40;;;;;;;;;;5102080;28;20223;-60
2023/03/25 11:23:47;;;;;;;0.60;0.60;;;;;;;;;;5102458;28;20204;-60
2023/03/25 11:26:18;;;;;;;4.20;0.70;;;;;;;;;;5102307;28;20224;-60
2023/03/25 11:28:46;;;;;;;0.80;0.38;;;;;;;;;;5102096;28;20216;-60
2023/03/25 11:31:14;;;;;;;1.50;0.93;;;;;;;;;;5102003;28;20496;-59
2023/03/25 11:33:41;;;;;;;0.77;0.70;;;;;;;;;;5102002;28;20200;-60
2023/03/25 11:36:12;;;;;;;2.10;0.52;;;;;;;;;;5102417;28;20266;-60
2023/03/25 11:38:38;;;;;;;1.00;0.68;;;;;;;;;;5102208;28;20436;-59
2023/03/25 11:41:05;;;;;;;1.20;0.40;;;;;;;;;;5101973;28;20219;-60
2023/03/25 11:43:34;;;;;;;0.38;0.35;;;;;;;;;;5102081;28;20196;-60
2023/03/25 11:46:08;;;;;;;1.08;0.40;;;;;;;;;;5105887;28;20191;-60
2023/03/25 11:48:37;;;;;;;0.52;0.30;;;;;;;;;;5105444;28;20233;-60
2023/03/25 11:51:05;;;;;;;2.53;0.75;;;;;;;;;;5105444;28;20198;-60
2023/03/25 11:53:32;;;;;;;0.55;0.40;;;;;;;;;;5105481;28;20195;-60
2023/03/25 11:56:00;;;;;;;1.73;0.50;;;;;;;;;;5105602;28;20508;-60
2023/03/25 11:58:29;;;;;;;2.00;0.40;;;;;;;;;;5105506;28;20199;-60
2023/03/25 12:01:00;;;;;;;1.17;0.50;;;;;;;;;;5105289;28;20385;-60
2023/03/25 12:03:28;;;;;;;0.32;0.32;;;;;;;;;;5105213;28;20217;-59
2023/03/25 12:05:59;;;;;;;1.65;0.55;;;;;;;;;;5105511;28;20234;-60
2023/03/25 12:08:28;;;;;;;1.55;0.40;;;;;;;;;;5105412;28;20202;-58
2023/03/25 12:10:56;;;;;;;1.98;0.75;;;;;;;;;;5105148;28;20373;-59
2023/03/25 12:13:28;;;;;;;3.95;2.25;;;;;;;;;;5105261;28;20206;-60
2023/03/25 12:15:59;;;;;;;2.65;0.80;;;;;;;;;;5105205;28;20234;-61
2023/03/25 12:18:35;;;;;;;1.75;0.90;;;;;;;;;;5105298;28;20195;-60
2023/03/25 12:21:06;;;;;;;4.47;0.80;;;;;;;;;;5104887;28;20215;-59
2023/03/25 12:23:37;;;;;;;0.68;0.68;;;;;;;;;;5105062;28;20230;-60
2023/03/25 12:26:09;;;;;;;0.55;0.50;;;;;;;;;;5104891;28;20215;-58
2023/03/25 12:28:48;;;;;;;1.23;0.63;;;;;;;;;;5105052;28;20232;-60
2023/03/25 12:31:22;;;;;;;0.60;0.45;;;;;;;;;;5104718;28;20229;-60
2023/03/25 12:33:55;;;;;;;0.82;0.50;;;;;;;;;;5104871;28;20491;-60
2023/03/25 12:36:27;;;;;;;1.98;1.33;;;;;;;;;;5104891;28;20416;-60
2023/03/25 12:38:59;;;;;;;2.53;0.50;;;;;;;;;;5105090;28;20199;-60
2023/03/25 12:41:28;;;;;;;2.97;1.35;;;;;;;;;;5104334;28;20223;-60
2023/03/25 12:44:00;;;;;;;3.03;0.93;;;;;;;;;;5104697;28;20196;-60
2023/03/25 12:46:35;;;;;;;1.85;1.27;;;;;;;;;;5104180;28;20224;-60
2023/03/25 12:49:08;;;;;;;0.60;0.60;;;;;;;;;;5104713;28;20203;-60
2023/03/25 12:51:40;;;;;;;1.45;0.85;;;;;;;;;;5104827;28;20192;-59
2023/03/25 12:54:16;;;;;;;1.38;0.60;;;;;;;;;;5104739;28;20233;-60
2023/03/25 12:56:46;;;;;;;1.65;0.57;;;;;;;;;;5103686;28;20196;-60
2023/03/25 12:59:27;;;;;;;2.17;0.50;;;;;;;;;;5104539;28;20203;-58
2023/03/25 13:01:59;;;;;;;1.83;0.50;;;;;;;;;;5104673;28;20418;-60
2023/03/25 13:04:39;;;;;;;0.43;0.40;;;;;;;;;;5104651;28;20208;-60
2023/03/25 13:07:07;;;;;;;1.85;0.73;;;;;;;;;;5104401;28;20238;-59
2023/03/25 13:09:34;;;;;;;2.17;0.60;;;;;;;;;;5104638;28;20456;-60
2023/03/25 13:12:03;;;;;;;3.10;0.55;;;;;;;;;;5103988;28;20201;-60
2023/03/25 13:14:32;;;;;;;0.82;0.70;;;;;;;;;;5104564;28;20195;-60
2023/03/25 13:17:00;;;;;;;0.40;0.40;;;;;;;;;;5104361;28;20196;-60
2023/03/25 13:19:27;;;;;;;0.70;0.68;;;;;;;;;;5104303;28;20249;-60
2023/03/25 13:21:57;;;;;;;4.50;0.60;;;;;;;;;;5103895;28;20433;-60
2023/03/25 13:24:24;;;;;;;1.00;0.63;;;;;;;;;;5104037;28;20195;-61
2023/03/25 13:26:52;;;;;;;1.27;0.70;;;;;;;;;;5104235;28;20200;-61
2023/03/25 13:29:24;;;;;;;1.77;0.70;;;;;;;;;;5103926;28;20557;-60
2023/03/25 13:31:50;;;;;;;1.15;0.52;;;;;;;;;;5103918;28;20196;-61
2023/03/25 13:34:21;;;;;;;1.20;0.43;;;;;;;;;;5104419;28;20195;-59
2023/03/25 13:36:50;;;;;;;2.85;1.02;;;;;;;;;;5103874;28;20204;-60
2023/03/25 13:39:20;;;;;;;0.52;0.50;;;;;;;;;;5103997;28;20408;-58
2023/03/25 13:41:49;;;;;;;1.48;0.40;;;;;;;;;;5103890;28;20539;-60
2023/03/25 13:44:18;;;;;;;0.30;0.30;;;;;;;;;;5103857;28;20388;-60
2023/03/25 13:46:46;;;;;;;1.52;0.47;;;;;;;;;;5103410;28;20262;-60
2023/03/25 13:49:15;;;;;;;1.75;0.70;;;;;;;;;;5103610;28;20196;-60
2023/03/25 13:51:42;;;;;;;1.15;0.70;;;;;;;;;;5103278;28;20195;-60
2023/03/25 13:54:12;;;;;;;1.13;0.68;;;;;;;;;;5103600;28;20196;-61
2023/03/25 13:56:56;;;;;;;0.85;0.25;;;;;;;;;;5103555;28;20364;-60
2023/03/25 13:59:40;;;;;;;2.28;1.25;;;;;;;;;;5103472;28;20500;-61
2023/03/25 14:02:16;;;;;;;2.20;0.98;;;;;;;;;;5103031;28;20649;-60
2023/03/25 14:05:00;;;;;;;2.13;0.88;;;;;;;;;;5103347;28;20262;-61
2023/03/25 14:07:38;;;;;;;2.05;0.70;;;;;;;;;;5102338;28;20203;-60
2023/03/25 14:10:26;;;;;;;1.90;0.68;;;;;;;;;;5102804;28;20203;-61
2023/03/25 14:12:55;;;;;;;1.65;0.50;;;;;;;;;;5097543;28;20392;-60
2023/03/25 14:15:23;;;;;;;1.23;0.60;;;;;;;;;;5102895;28;20196;-59
2023/03/25 14:17:51;;;;;;;1.33;0.60;;;;;;;;;;5102765;28;20502;-61
2023/03/25 14:20:23;;;;;;;3.22;0.65;;;;;;;;;;5102743;28;20393;-61
2023/03/25 14:22:54;;;;;;;1.30;0.60;;;;;;;;;;5102329;28;20237;-60
2023/03/25 14:25:21;;;;;;;3.08;0.70;;;;;;;;;;5103019;28;20222;-61
2023/03/25 14:27:49;;;;;;;1.05;0.52;;;;;;;;;;5102783;28;20224;-61
2023/03/25 14:30:19;;;;;;;1.70;0.90;;;;;;;;;;5102637;28;20238;-61
2023/03/25 14:32:45;;;;;;;0.73;0.38;;;;;;;;;;5102627;28;20191;-60
2023/03/25 14:35:31;;;;;;;1.27;0.60;;;;;;;;;;5101928;28;20208;-61
2023/03/25 14:37:57;;;;;;;1.00;0.50;;;;;;;;;;5102081;28;20435;-61
2023/03/25 14:40:42;;;;;;;3.40;0.57;;;;;;;;;;5102666;28;20195;-60
2023/03/25 14:43:18;;;;;;;1.80;0.52;;;;;;;;;;5102269;28;20543;-61
2023/03/25 14:45:59;;;;;;;0.43;0.43;;;;;;;;;;5102268;28;20195;-61
2023/03/25 14:48:30;;;;;;;2.50;0.88;;;;;;;;;;5102220;28;20258;-60
2023/03/25 14:51:10;;;;;;;0.60;0.60;;;;;;;;;;5102318;28;20195;-61
2023/03/25 14:53:37;;;;;;;0.63;0.40;;;;;;;;;;5102183;28;20393;-59